createdAt,value
2017-11-24T00:02:14.883Z,13.40
2017-11-24T00:04:40.831Z,13.40
2017-11-24T00:07:06.784Z,13.40
2017-11-24T00:09:32.711Z,13.40
2017-11-24T00:11:58.671Z,13.40
2017-11-24T00:14:24.602Z,13.40
2017-11-24T00:16:50.528Z,13.30
2017-11-24T00:19:16.495Z,13.40
2017-11-24T00:21:42.518Z,13.30
2017-11-24T00:24:08.429Z,13.30
2017-11-24T00:26:34.340Z,13.30
2017-11-24T00:29:01.012Z,13.40
2017-11-24T00:31:26.998Z,13.40
2017-11-24T00:33:53.734Z,13.50
2017-11-24T00:36:19.722Z,13.50
2017-11-24T00:38:45.636Z,13.50
2017-11-24T00:41:11.605Z,13.50
2017-11-24T00:43:37.523Z,13.50
2017-11-24T00:46:04.190Z,13.40
2017-11-24T00:48:30.128Z,13.40
2017-11-24T00:50:56.085Z,13.50
2017-11-24T00:53:22.028Z,13.40
2017-11-24T00:55:47.996Z,13.50
2017-11-24T00:58:13.940Z,13.40
2017-11-24T01:00:39.863Z,13.40
2017-11-24T01:03:05.832Z,13.40
2017-11-24T01:05:31.775Z,13.40
2017-11-24T01:07:58.779Z,13.40
2017-11-24T01:10:24.774Z,13.40
2017-11-24T01:12:50.704Z,13.40
2017-11-24T01:15:17.376Z,13.40
2017-11-24T01:17:43.412Z,13.40
2017-11-24T01:20:09.342Z,13.40
2017-11-24T01:22:35.269Z,13.40
2017-11-24T01:25:01.177Z,13.40
2017-11-24T01:27:27.168Z,13.40
2017-11-24T01:29:53.057Z,13.30
2017-11-24T01:32:18.991Z,13.30
2017-11-24T01:34:45.661Z,13.30
2017-11-24T01:37:11.598Z,13.20
2017-11-24T01:39:37.574Z,13.20
2017-11-24T01:42:04.262Z,13.20
2017-11-24T01:44:30.177Z,13.30
2017-11-24T01:46:56.141Z,13.20
2017-11-24T01:49:22.811Z,13.20
2017-11-24T01:51:48.773Z,13.20
2017-11-24T01:54:14.724Z,13.30
2017-11-24T01:56:41.448Z,13.20
2017-11-24T01:59:07.401Z,13.20
2017-11-24T02:01:33.304Z,13.10
2017-11-24T02:03:59.240Z,13.20
2017-11-24T02:06:25.909Z,13.20
2017-11-24T02:08:52.648Z,13.20
2017-11-24T02:11:18.597Z,13.10
2017-11-24T02:13:44.528Z,13.20
2017-11-24T02:16:10.482Z,13.10
2017-11-24T02:18:37.128Z,13.10
2017-11-24T02:21:03.138Z,13.10
2017-11-24T02:23:29.785Z,13.00
2017-11-24T02:25:55.719Z,13.00
2017-11-24T02:28:21.642Z,13.00
2017-11-24T02:30:47.578Z,13.00
2017-11-24T02:33:13.484Z,13.00
2017-11-24T02:35:39.418Z,13.00
2017-11-24T02:38:05.325Z,13.00
2017-11-24T02:40:31.260Z,13.00
2017-11-24T02:42:57.211Z,13.00
2017-11-24T02:45:23.201Z,13.00
2017-11-24T02:47:49.096Z,13.00
2017-11-24T02:50:15.079Z,13.00
2017-11-24T02:52:41.050Z,13.00
2017-11-24T02:55:07.011Z,13.00
2017-11-24T02:57:32.924Z,13.00
2017-11-24T02:59:59.619Z,13.00
2017-11-24T03:02:25.565Z,13.00
2017-11-24T03:04:51.502Z,13.00
2017-11-24T03:07:17.461Z,13.00
2017-11-24T03:09:43.410Z,13.00
2017-11-24T03:12:09.344Z,13.00
2017-11-24T03:14:35.275Z,13.10
2017-11-24T03:17:01.227Z,13.10
2017-11-24T03:19:27.234Z,13.10
2017-11-24T03:21:53.176Z,13.10
2017-11-24T03:24:19.105Z,13.00
2017-11-24T03:26:45.021Z,13.00
2017-11-24T03:29:11.685Z,13.00
2017-11-24T03:31:37.593Z,12.90
2017-11-24T03:34:03.509Z,12.90
2017-11-24T03:36:29.447Z,12.90
2017-11-24T03:38:55.369Z,12.90
2017-11-24T03:41:21.269Z,12.90
2017-11-24T03:43:47.925Z,12.90
2017-11-24T03:46:13.868Z,12.80
2017-11-24T03:48:39.779Z,12.80
2017-11-24T03:51:05.847Z,12.80
2017-11-24T03:53:31.793Z,12.80
2017-11-24T03:55:58.458Z,12.70
2017-11-24T03:58:24.375Z,12.70
2017-11-24T04:00:50.323Z,12.70
2017-11-24T04:03:16.245Z,12.70
2017-11-24T04:05:42.181Z,12.60
2017-11-24T04:08:08.101Z,12.60
2017-11-24T04:10:34.060Z,12.50
2017-11-24T04:12:59.973Z,12.50
2017-11-24T04:15:25.912Z,12.50
2017-11-24T04:17:51.846Z,12.50
2017-11-24T04:20:17.760Z,12.50
2017-11-24T04:22:43.692Z,12.50
2017-11-24T04:25:09.600Z,12.60
2017-11-24T04:27:35.557Z,12.50
2017-11-24T04:30:01.487Z,12.60
2017-11-24T04:32:27.420Z,12.50
2017-11-24T04:34:53.352Z,12.60
2017-11-24T04:37:19.285Z,12.60
2017-11-24T04:39:45.945Z,12.60
2017-11-24T04:42:11.865Z,12.50
2017-11-24T04:44:37.823Z,12.50
2017-11-24T04:47:03.774Z,12.50
2017-11-24T04:49:29.681Z,12.60
2017-11-24T04:51:55.578Z,12.50
2017-11-24T04:54:21.492Z,12.60
2017-11-24T04:56:47.405Z,12.60
2017-11-24T04:59:13.364Z,12.50
2017-11-24T05:01:39.289Z,12.60
2017-11-24T05:04:05.322Z,12.50
2017-11-24T05:06:31.248Z,12.50
2017-11-24T05:08:57.170Z,12.50
2017-11-24T05:11:23.145Z,12.50
2017-11-24T05:13:49.288Z,12.50
2017-11-24T05:16:15.241Z,12.60
2017-11-24T05:18:41.140Z,12.60
2017-11-24T05:21:07.128Z,12.60
2017-11-24T05:23:33.065Z,12.70
2017-11-24T05:25:58.961Z,12.60
2017-11-24T05:28:24.856Z,12.70
2017-11-24T05:30:50.788Z,12.60
2017-11-24T05:33:16.713Z,12.70
2017-11-24T05:35:42.628Z,12.60
2017-11-24T05:38:08.593Z,12.60
2017-11-24T05:40:34.508Z,12.60
2017-11-24T05:43:01.429Z,12.60
2017-11-24T05:45:27.395Z,12.60
2017-11-24T05:47:53.311Z,12.60
2017-11-24T05:50:20.077Z,12.70
2017-11-24T05:52:54.378Z,12.60
2017-11-24T05:55:20.373Z,12.70
2017-11-24T05:57:46.285Z,12.70
2017-11-24T06:00:12.310Z,12.70
2017-11-24T06:02:38.282Z,12.70
2017-11-24T06:05:04.215Z,12.60
2017-11-24T06:07:30.156Z,12.60
2017-11-24T06:09:56.061Z,12.50
2017-11-24T06:12:22.065Z,12.40
2017-11-24T06:14:48.047Z,12.30
2017-11-24T06:17:13.977Z,12.20
2017-11-24T06:19:39.917Z,12.20
2017-11-24T06:22:05.872Z,12.00
2017-11-24T06:24:31.789Z,12.00
2017-11-24T06:26:57.760Z,12.00
2017-11-24T06:29:24.484Z,12.00
2017-11-24T06:31:50.410Z,11.90
2017-11-24T06:34:16.328Z,12.00
2017-11-24T06:36:42.916Z,12.00
2017-11-24T06:39:08.974Z,11.90
2017-11-24T06:41:34.900Z,12.00
2017-11-24T06:44:01.048Z,12.10
2017-11-24T06:46:27.085Z,12.00
2017-11-24T06:48:53.032Z,12.00
2017-11-24T06:51:18.972Z,11.90
2017-11-24T06:53:44.903Z,12.00
2017-11-24T06:56:11.720Z,11.90
2017-11-24T06:58:37.649Z,12.00
2017-11-24T07:01:03.623Z,11.90
2017-11-24T07:03:30.323Z,12.00
2017-11-24T07:05:56.300Z,12.00
2017-11-24T07:08:22.262Z,12.00
2017-11-24T07:10:48.436Z,12.00
2017-11-24T07:13:14.442Z,12.00
2017-11-24T07:18:33.496Z,12.00
2017-11-24T07:20:59.417Z,12.10
2017-11-24T07:23:25.331Z,12.10
2017-11-24T07:25:51.305Z,12.20
2017-11-24T07:28:17.245Z,12.20
2017-11-24T07:30:43.188Z,12.20
2017-11-24T07:33:09.089Z,12.20
2017-11-24T07:35:35.040Z,12.20
2017-11-24T07:38:01.021Z,12.20
2017-11-24T07:40:27.692Z,12.20
2017-11-24T07:42:54.393Z,12.20
2017-11-24T07:45:20.317Z,12.20
2017-11-24T07:47:46.856Z,12.20
2017-11-24T07:50:12.919Z,12.10
2017-11-24T07:52:38.862Z,12.30
2017-11-24T07:55:05.534Z,12.30
2017-11-24T07:57:31.511Z,12.20
2017-11-24T07:59:57.446Z,12.30
2017-11-24T08:02:24.103Z,12.30
2017-11-24T08:04:50.889Z,12.30
2017-11-24T08:07:16.794Z,12.40
2017-11-24T08:09:42.723Z,12.40
2017-11-24T08:12:08.652Z,12.40
2017-11-24T08:14:34.582Z,12.40
2017-11-24T08:17:00.490Z,12.40
2017-11-24T08:19:26.459Z,12.40
2017-11-24T08:21:52.371Z,12.40
2017-11-24T08:24:18.344Z,12.40
2017-11-24T08:26:44.273Z,12.40
2017-11-24T08:29:10.287Z,12.50
2017-11-24T08:31:36.267Z,12.40
2017-11-24T08:34:02.270Z,12.40
2017-11-24T08:36:28.204Z,12.40
2017-11-24T08:38:55.028Z,12.40
2017-11-24T08:41:20.949Z,12.40
2017-11-24T08:43:46.867Z,12.40
2017-11-24T08:46:13.704Z,12.50
2017-11-24T08:48:45.871Z,12.50
2017-11-24T08:51:11.832Z,12.50
2017-11-24T08:53:38.551Z,12.50
2017-11-24T08:56:04.548Z,12.50
2017-11-24T08:58:30.460Z,12.60
2017-11-24T09:00:56.407Z,12.60
2017-11-24T09:03:22.329Z,12.60
2017-11-24T09:05:48.418Z,12.70
2017-11-24T09:08:14.460Z,12.70
2017-11-24T09:10:40.494Z,12.70
2017-11-24T09:13:07.153Z,12.80
2017-11-24T09:15:33.081Z,12.80
2017-11-24T09:17:59.000Z,12.90
2017-11-24T09:20:24.941Z,13.00
2017-11-24T09:22:50.891Z,13.00
2017-11-24T09:25:16.829Z,13.00
2017-11-24T09:27:43.586Z,13.10
2017-11-24T09:30:10.485Z,13.10
2017-11-24T09:32:36.399Z,13.10
2017-11-24T09:35:02.324Z,13.20
2017-11-24T09:37:28.269Z,13.20
2017-11-24T09:39:54.194Z,13.30
2017-11-24T09:42:20.149Z,13.40
2017-11-24T09:44:46.097Z,13.40
2017-11-24T09:47:12.085Z,13.40
2017-11-24T09:49:38.004Z,13.50
2017-11-24T09:52:03.921Z,13.50
2017-11-24T09:54:29.853Z,13.50
2017-11-24T09:56:55.859Z,13.50
2017-11-24T09:59:21.808Z,13.60
2017-11-24T10:01:48.499Z,13.60
2017-11-24T10:04:15.156Z,13.60
2017-11-24T10:06:41.183Z,13.60
2017-11-24T10:09:07.145Z,13.60
2017-11-24T10:11:33.069Z,13.70
2017-11-24T10:13:58.987Z,13.70
2017-11-24T10:16:24.953Z,13.70
2017-11-24T10:18:51.698Z,13.70
2017-11-24T10:21:23.701Z,13.70
2017-11-24T10:23:49.615Z,13.80
2017-11-24T10:26:15.605Z,13.80
2017-11-24T10:28:41.544Z,13.80
2017-11-24T10:31:07.476Z,13.80
2017-11-24T10:33:33.458Z,13.90
2017-11-24T10:36:00.571Z,14.00
2017-11-24T10:38:27.187Z,13.90
2017-11-24T10:40:53.108Z,14.00
2017-11-24T10:43:19.097Z,14.00
2017-11-24T10:45:45.034Z,14.00
2017-11-24T10:48:10.982Z,14.00
2017-11-24T10:50:36.930Z,14.00
2017-11-24T10:53:02.888Z,14.10
2017-11-24T10:55:28.819Z,14.10
2017-11-24T10:57:55.565Z,14.10
2017-11-24T11:00:21.550Z,14.00
2017-11-24T11:02:48.277Z,14.10
2017-11-24T11:05:14.188Z,14.10
2017-11-24T11:07:40.133Z,14.10
2017-11-24T11:10:06.125Z,14.10
2017-11-24T11:12:32.043Z,14.10
2017-11-24T11:14:58.003Z,14.10
2017-11-24T11:17:23.991Z,14.10
2017-11-24T11:19:49.924Z,14.10
2017-11-24T11:22:15.900Z,14.10
2017-11-24T11:24:41.820Z,14.10
2017-11-24T11:27:07.737Z,14.20
2017-11-24T11:29:33.661Z,14.20
2017-11-24T11:31:59.608Z,14.20
2017-11-24T11:34:25.525Z,14.10
2017-11-24T11:36:52.154Z,14.10
2017-11-24T11:39:18.090Z,14.10
2017-11-24T11:41:44.045Z,14.10
2017-11-24T11:44:10.747Z,14.10
2017-11-24T11:46:36.688Z,14.00
2017-11-24T11:49:02.628Z,14.10
2017-11-24T11:51:28.544Z,14.00
2017-11-24T11:53:55.270Z,14.10
2017-11-24T11:56:21.212Z,14.00
2017-11-24T11:58:47.196Z,14.10
2017-11-24T12:01:13.269Z,14.10
2017-11-24T12:03:39.317Z,14.20
2017-11-24T12:06:05.442Z,14.20
2017-11-24T12:08:31.375Z,14.20
2017-11-24T12:10:57.290Z,14.20
2017-11-24T12:13:23.240Z,14.20
2017-11-24T12:15:49.197Z,14.20
2017-11-24T12:18:15.147Z,14.20
2017-11-24T12:20:41.234Z,14.20
2017-11-24T12:23:07.232Z,14.20
2017-11-24T12:25:33.963Z,14.20
2017-11-24T12:27:59.908Z,14.10
2017-11-24T12:30:25.940Z,14.10
2017-11-24T12:32:51.915Z,14.10
2017-11-24T12:35:17.857Z,14.10
2017-11-24T12:37:44.589Z,14.20
2017-11-24T12:40:10.543Z,14.10
2017-11-24T12:42:36.471Z,14.20
2017-11-24T12:45:02.405Z,14.20
2017-11-24T12:47:28.330Z,14.20
2017-11-24T12:49:54.282Z,14.20
2017-11-24T12:52:20.393Z,14.10
2017-11-24T12:54:46.340Z,14.10
2017-11-24T12:57:12.337Z,14.20
2017-11-24T12:59:38.384Z,14.10
2017-11-24T13:02:04.386Z,14.10
2017-11-24T13:04:30.327Z,14.10
2017-11-24T13:06:56.404Z,14.20
2017-11-24T13:09:22.332Z,14.10
2017-11-24T13:11:48.407Z,14.10
2017-11-24T13:14:15.870Z,14.00
2017-11-24T13:16:42.589Z,14.10
2017-11-24T13:19:08.561Z,14.00
2017-11-24T13:21:34.487Z,14.00
2017-11-24T13:24:01.281Z,14.00
2017-11-24T13:26:27.208Z,14.00
2017-11-24T13:28:53.859Z,14.00
2017-11-24T13:31:19.785Z,14.00
2017-11-24T13:33:45.705Z,14.00
2017-11-24T13:36:11.613Z,14.00
2017-11-24T13:38:37.545Z,14.00
2017-11-24T13:41:03.488Z,14.10
2017-11-24T13:43:29.440Z,14.00
2017-11-24T13:45:55.385Z,14.00
2017-11-24T13:48:22.070Z,14.00
2017-11-24T13:50:47.983Z,14.00
2017-11-24T13:53:13.939Z,14.00
2017-11-24T13:55:40.400Z,14.00
2017-11-24T13:58:06.368Z,14.00
2017-11-24T14:00:32.351Z,14.00
2017-11-24T14:02:59.044Z,14.00
2017-11-24T14:05:25.041Z,13.90
2017-11-24T14:07:50.965Z,13.90
2017-11-24T14:10:17.007Z,13.80
2017-11-24T14:12:42.959Z,13.70
2017-11-24T14:15:08.938Z,13.50
2017-11-24T14:20:07.665Z,13.40
2017-11-24T14:22:33.560Z,13.40
2017-11-24T14:24:59.517Z,13.30
2017-11-24T14:27:25.420Z,13.30
2017-11-24T14:29:51.421Z,13.30
2017-11-24T14:32:17.391Z,13.30
2017-11-24T14:34:43.452Z,13.20
2017-11-24T14:37:09.407Z,13.30
2017-11-24T14:39:35.335Z,13.20
2017-11-24T14:42:01.259Z,13.30
2017-11-24T14:44:27.266Z,13.30
2017-11-24T14:46:53.212Z,13.30
2017-11-24T14:49:19.143Z,13.30
2017-11-24T14:51:45.303Z,13.30
2017-11-24T14:54:11.293Z,13.30
2017-11-24T14:56:37.994Z,13.30
2017-11-24T14:59:03.923Z,13.20
2017-11-24T15:01:29.954Z,13.30
2017-11-24T15:03:55.856Z,13.30
2017-11-24T15:06:21.878Z,13.30
2017-11-24T15:08:47.854Z,13.30
2017-11-24T15:11:13.780Z,13.10
2017-11-24T15:13:39.732Z,13.00
2017-11-24T15:16:05.788Z,13.00
2017-11-24T15:18:31.788Z,12.90
2017-11-24T15:20:57.740Z,12.60
2017-11-24T15:23:23.703Z,12.40
2017-11-24T15:25:49.709Z,12.40
2017-11-24T15:28:15.677Z,12.10
2017-11-24T15:30:41.606Z,12.00
2017-11-24T15:33:07.525Z,11.80
2017-11-24T15:35:33.469Z,11.90
2017-11-24T15:37:59.525Z,11.70
2017-11-24T15:40:25.444Z,11.60
2017-11-24T15:42:51.467Z,11.80
2017-11-24T15:45:17.380Z,11.70
2017-11-24T15:47:43.328Z,11.70
2017-11-24T15:50:09.269Z,11.50
2017-11-24T15:52:35.266Z,11.50
2017-11-24T15:55:01.184Z,11.50
2017-11-24T15:57:27.195Z,11.50
2017-11-24T15:59:53.109Z,11.50
2017-11-24T16:02:19.073Z,11.50
2017-11-24T16:04:45.085Z,11.60
2017-11-24T16:07:11.083Z,11.70
2017-11-24T16:09:37.036Z,11.80
2017-11-24T16:12:03.132Z,11.80
2017-11-24T16:14:29.152Z,11.80
2017-11-24T16:16:55.101Z,11.80
2017-11-24T16:19:21.098Z,11.80
2017-11-24T16:21:47.165Z,11.90
2017-11-24T16:24:13.081Z,11.90
2017-11-24T16:26:39.021Z,11.70
2017-11-24T16:29:05.737Z,11.50
2017-11-24T16:31:31.695Z,11.50
2017-11-24T16:33:58.455Z,11.40
2017-11-24T16:36:24.456Z,11.40
2017-11-24T16:38:50.387Z,11.40
2017-11-24T16:41:16.340Z,11.40
2017-11-24T16:43:42.299Z,11.50
2017-11-24T16:46:08.239Z,11.70
2017-11-24T16:48:34.916Z,11.40
2017-11-24T16:51:00.967Z,11.40
2017-11-24T16:53:26.896Z,11.40
2017-11-24T16:55:52.852Z,11.30
2017-11-24T16:58:18.796Z,11.30
2017-11-24T17:00:45.583Z,11.40
2017-11-24T17:03:11.511Z,11.50
2017-11-24T17:05:38.165Z,11.40
2017-11-24T17:08:04.105Z,11.40
2017-11-24T17:10:30.089Z,11.30
2017-11-24T17:12:56.054Z,11.20
2017-11-24T17:15:22.032Z,11.10
2017-11-24T17:17:47.945Z,11.10
2017-11-24T17:20:13.863Z,11.10
2017-11-24T17:22:39.790Z,11.20
2017-11-24T17:25:05.704Z,11.30
2017-11-24T17:27:31.653Z,11.40
2017-11-24T17:29:57.637Z,11.50
2017-11-24T17:32:23.596Z,11.40
2017-11-24T17:34:49.589Z,11.40
2017-11-24T17:37:15.514Z,11.40
2017-11-24T17:39:41.440Z,11.40
2017-11-24T17:42:07.414Z,11.30
2017-11-24T17:44:33.368Z,11.30
2017-11-24T17:46:59.317Z,11.40
2017-11-24T17:49:25.232Z,11.40
2017-11-24T17:51:51.165Z,11.40
2017-11-24T17:54:17.116Z,11.30
2017-11-24T17:56:43.056Z,11.10
2017-11-24T17:59:09.062Z,10.90
2017-11-24T18:01:35.040Z,10.90
2017-11-24T18:04:01.765Z,11.00
2017-11-24T18:06:28.398Z,11.10
2017-11-24T18:08:55.140Z,11.10
2017-11-24T18:11:21.825Z,11.00
2017-11-24T18:13:47.827Z,10.90
2017-11-24T18:16:13.913Z,10.90
2017-11-24T18:18:39.893Z,11.00
2017-11-24T18:21:05.853Z,11.10
2017-11-24T18:23:31.824Z,11.20
2017-11-24T18:25:57.772Z,11.10
2017-11-24T18:28:23.673Z,11.20
2017-11-24T18:30:49.629Z,11.20
2017-11-24T18:33:15.563Z,11.20
2017-11-24T18:35:41.481Z,11.10
2017-11-24T18:38:07.516Z,10.90
2017-11-24T18:40:34.180Z,11.00
2017-11-24T18:43:00.153Z,11.00
2017-11-24T18:45:26.097Z,11.00
2017-11-24T18:47:52.062Z,11.00
2017-11-24T18:50:17.984Z,11.00
2017-11-24T18:52:43.956Z,11.00
2017-11-24T18:55:09.881Z,11.00
2017-11-24T18:57:35.819Z,10.90
2017-11-24T19:00:01.760Z,10.90
2017-11-24T19:02:27.730Z,10.90
2017-11-24T19:04:53.684Z,10.90
2017-11-24T19:07:19.618Z,10.90
2017-11-24T19:09:46.825Z,10.90
2017-11-24T19:12:12.769Z,11.00
2017-11-24T19:14:38.751Z,11.10
2017-11-24T19:17:04.704Z,11.00
2017-11-24T19:19:31.391Z,10.90
2017-11-24T19:21:57.346Z,10.80
2017-11-24T19:24:24.284Z,11.00
2017-11-24T19:26:50.215Z,10.90
2017-11-24T19:29:16.184Z,10.80
2017-11-24T19:31:42.081Z,10.80
2017-11-24T19:34:08.013Z,10.80
2017-11-24T19:36:34.683Z,11.00
2017-11-24T19:39:00.716Z,10.90
2017-11-24T19:41:26.695Z,10.90
2017-11-24T19:43:52.607Z,10.80
2017-11-24T19:46:18.618Z,10.70
2017-11-24T19:48:45.272Z,10.70
2017-11-24T19:51:11.216Z,10.60
2017-11-24T19:53:37.150Z,10.50
2017-11-24T19:56:03.126Z,10.40
2017-11-24T19:58:29.055Z,10.40
2017-11-24T20:00:55.050Z,10.40
2017-11-24T20:03:21.782Z,10.50
2017-11-24T20:05:47.720Z,10.40
2017-11-24T20:08:15.308Z,10.50
2017-11-24T20:10:41.262Z,10.50
2017-11-24T20:13:07.199Z,10.50
2017-11-24T20:15:33.225Z,10.40
2017-11-24T20:17:59.185Z,10.60
2017-11-24T20:20:25.167Z,10.60
2017-11-24T20:22:51.097Z,10.60
2017-11-24T20:25:17.771Z,10.50
2017-11-24T20:27:43.707Z,10.40
2017-11-24T20:30:09.703Z,10.60
2017-11-24T20:32:35.647Z,10.60
2017-11-24T20:35:01.604Z,10.50
2017-11-24T20:37:27.500Z,10.30
2017-11-24T20:39:53.476Z,10.20
2017-11-24T20:42:20.177Z,10.30
2017-11-24T20:44:46.131Z,10.20
2017-11-24T20:47:12.081Z,10.20
2017-11-24T20:49:38.176Z,10.50
2017-11-24T20:52:04.897Z,10.50
2017-11-24T20:54:30.841Z,10.50
2017-11-24T20:56:57.515Z,10.50
2017-11-24T20:59:23.412Z,10.40
2017-11-24T21:01:49.420Z,10.50
2017-11-24T21:04:16.133Z,10.40
2017-11-24T21:06:42.066Z,10.30
2017-11-24T21:09:08.865Z,10.40
2017-11-24T21:11:34.841Z,10.30
2017-11-24T21:14:00.762Z,10.40
2017-11-24T21:16:27.464Z,10.40
2017-11-24T21:18:53.411Z,10.40
2017-11-24T21:21:19.398Z,10.40
2017-11-24T21:23:45.315Z,10.30
2017-11-24T21:26:11.285Z,10.20
2017-11-24T21:28:37.216Z,10.20
2017-11-24T21:31:03.178Z,10.10
2017-11-24T21:33:29.104Z,10.20
2017-11-24T21:35:55.052Z,10.30
2017-11-24T21:38:21.722Z,10.30
2017-11-24T21:40:47.632Z,10.30
2017-11-24T21:43:13.604Z,10.30
2017-11-24T21:45:39.570Z,10.20
2017-11-24T21:48:05.548Z,10.30
2017-11-24T21:50:31.525Z,10.20
2017-11-24T21:52:57.501Z,10.10
2017-11-24T21:55:23.475Z,10.20
2017-11-24T21:57:57.187Z,10.20
2017-11-24T22:00:23.559Z,10.20
2017-11-24T22:02:49.513Z,10.20
2017-11-24T22:05:15.456Z,10.00
2017-11-24T22:07:41.404Z,9.80
2017-11-24T22:10:07.381Z,9.80
2017-11-24T22:12:34.102Z,9.60
2017-11-24T22:15:02.000Z,9.60
2017-11-24T22:17:28.901Z,9.60
2017-11-24T22:20:00.041Z,9.80
2017-11-24T22:22:27.486Z,9.80
2017-11-24T22:24:53.473Z,9.80
2017-11-24T22:27:19.441Z,9.80
2017-11-24T22:29:48.649Z,9.90
2017-11-24T22:32:15.326Z,10.10
2017-11-24T22:34:41.261Z,10.00
2017-11-24T22:37:07.172Z,10.10
2017-11-24T22:39:33.104Z,10.10
2017-11-24T22:41:59.013Z,10.10
2017-11-24T22:44:24.980Z,10.00
2017-11-24T22:46:50.921Z,10.00
2017-11-24T22:49:17.616Z,9.90
2017-11-24T22:51:43.546Z,9.80
2017-11-24T22:54:09.500Z,9.80
2017-11-24T22:56:35.497Z,9.70
2017-11-24T22:59:01.438Z,9.70
2017-11-24T23:01:27.368Z,9.60
2017-11-24T23:03:53.349Z,9.60
2017-11-24T23:06:19.297Z,9.80
2017-11-24T23:08:46.041Z,9.70
2017-11-24T23:11:11.947Z,9.70
2017-11-24T23:13:37.887Z,9.80
2017-11-24T23:16:03.796Z,9.70
2017-11-24T23:18:31.109Z,9.80
2017-11-24T23:20:57.069Z,9.80
2017-11-24T23:23:23.753Z,9.90
2017-11-24T23:25:49.701Z,9.80
2017-11-24T23:28:15.655Z,9.80
2017-11-24T23:30:41.668Z,9.70
2017-11-24T23:33:07.800Z,9.80
2017-11-24T23:35:34.485Z,9.80
2017-11-24T23:38:00.935Z,9.70
2017-11-24T23:40:26.888Z,9.80
2017-11-24T23:42:52.811Z,9.70
2017-11-24T23:45:18.712Z,9.50
2017-11-24T23:47:44.619Z,9.40
2017-11-24T23:50:10.529Z,9.40
2017-11-24T23:52:36.472Z,9.30
2017-11-24T23:55:02.601Z,9.20
2017-11-24T23:57:28.529Z,9.30
2017-11-24T23:59:55.232Z,9.50
